createdAt,value
2019-01-21T00:01:11.088Z,8.10
2019-01-21T00:03:39.670Z,8.20
2019-01-21T00:06:08.177Z,8.10
2019-01-21T00:08:36.837Z,8.10
2019-01-21T00:11:05.216Z,8.10
2019-01-21T00:13:33.629Z,8.00
2019-01-21T00:16:02.281Z,8.00
2019-01-21T00:18:30.897Z,7.70
2019-01-21T00:20:59.178Z,7.80
2019-01-21T00:23:27.533Z,7.80
2019-01-21T00:25:55.879Z,7.80
2019-01-21T00:28:24.404Z,7.70
2019-01-21T00:30:52.860Z,7.60
2019-01-21T00:33:21.163Z,7.70
2019-01-21T00:35:49.712Z,7.70
2019-01-21T00:38:18.227Z,7.60
2019-01-21T00:40:46.709Z,7.90
2019-01-21T00:43:15.013Z,7.80
2019-01-21T00:45:43.464Z,7.70
2019-01-21T00:48:11.839Z,7.60
2019-01-21T00:50:40.221Z,7.70
2019-01-21T00:53:08.767Z,7.70
2019-01-21T00:55:37.179Z,7.70
2019-01-21T00:58:05.446Z,7.60
2019-01-21T01:00:34.003Z,7.60
2019-01-21T01:03:02.529Z,7.50
2019-01-21T01:05:30.796Z,7.60
2019-01-21T01:08:00.408Z,7.70
2019-01-21T01:10:28.947Z,7.70
2019-01-21T01:12:57.357Z,7.80
2019-01-21T01:15:25.726Z,7.80
2019-01-21T01:17:54.287Z,8.00
2019-01-21T01:20:22.709Z,8.00
2019-01-21T01:22:51.042Z,8.00
2019-01-21T01:25:19.624Z,8.10
2019-01-21T01:27:47.938Z,7.90
2019-01-21T01:30:17.337Z,7.90
2019-01-21T01:32:45.716Z,7.80
2019-01-21T01:35:16.031Z,8.00
2019-01-21T01:37:44.796Z,7.90
2019-01-21T01:40:15.264Z,7.90
2019-01-21T01:42:43.850Z,8.00
2019-01-21T01:45:16.665Z,7.90
2019-01-21T01:47:45.212Z,7.90
2019-01-21T01:50:13.786Z,7.90
2019-01-21T01:52:42.231Z,7.90
2019-01-21T01:55:10.773Z,8.10
2019-01-21T01:57:39.146Z,8.20
2019-01-21T02:00:10.732Z,8.20
2019-01-21T02:02:39.286Z,8.30
2019-01-21T02:05:07.945Z,8.50
2019-01-21T02:07:36.318Z,8.70
2019-01-21T02:10:06.135Z,8.70
2019-01-21T02:12:34.781Z,8.50
2019-01-21T02:15:04.226Z,8.30
2019-01-21T02:17:32.603Z,8.20
2019-01-21T02:20:01.730Z,8.20
2019-01-21T02:22:30.788Z,8.30
2019-01-21T02:25:02.509Z,8.40
2019-01-21T02:27:54.233Z,8.40
2019-01-21T02:30:41.504Z,8.70
2019-01-21T02:33:47.848Z,8.70
2019-01-21T02:37:04.025Z,8.60
2019-01-21T02:40:02.504Z,8.60
2019-01-21T02:42:51.397Z,8.60
2019-01-21T02:45:59.268Z,8.50
2019-01-21T02:48:57.063Z,8.60
2019-01-21T02:51:54.349Z,8.40
2019-01-21T02:54:40.177Z,8.40
2019-01-21T02:57:42.802Z,8.60
2019-01-21T03:00:22.399Z,8.70
2019-01-21T03:03:41.494Z,8.40
2019-01-21T03:06:44.863Z,8.40
2019-01-21T03:09:59.459Z,8.40
2019-01-21T03:12:57.328Z,8.40
2019-01-21T03:16:15.148Z,8.40
2019-01-21T03:19:18.325Z,8.30
2019-01-21T03:22:31.861Z,8.50
2019-01-21T03:25:21.401Z,8.40
2019-01-21T03:28:24.719Z,8.20
2019-01-21T03:31:46.202Z,8.20
2019-01-21T03:34:48.394Z,8.20
2019-01-21T03:37:56.841Z,8.10
2019-01-21T03:40:52.869Z,8.00
2019-01-21T03:44:09.579Z,8.00
2019-01-21T03:47:16.438Z,7.90
2019-01-21T03:49:59.588Z,7.60
2019-01-21T03:52:58.275Z,7.50
2019-01-21T03:55:26.891Z,7.60
2019-01-21T03:58:19.215Z,7.50
2019-01-21T04:01:06.926Z,7.60
2019-01-21T04:04:15.651Z,7.60
2019-01-21T04:07:02.298Z,7.70
2019-01-21T04:10:18.044Z,8.00
2019-01-21T04:13:23.729Z,8.10
2019-01-21T04:16:34.166Z,8.60
2019-01-21T04:19:33.051Z,8.80
2019-01-21T04:22:35.326Z,9.10
2019-01-21T04:25:33.194Z,9.20
2019-01-21T04:28:38.437Z,9.20
2019-01-21T04:31:19.236Z,8.80
2019-01-21T04:34:22.300Z,9.00
2019-01-21T04:37:14.361Z,8.90
2019-01-21T04:40:17.215Z,8.20
2019-01-21T04:43:41.881Z,8.60
2019-01-21T04:46:39.892Z,8.50
2019-01-21T04:49:45.332Z,8.30
2019-01-21T04:52:49.992Z,8.30
2019-01-21T04:55:46.219Z,8.30
2019-01-21T04:58:47.226Z,8.60
2019-01-21T05:01:52.888Z,8.80
2019-01-21T05:04:52.505Z,8.40
2019-01-21T05:07:45.037Z,8.40
2019-01-21T05:10:35.945Z,8.70
2019-01-21T05:13:47.743Z,8.80
2019-01-21T05:16:58.616Z,8.70
2019-01-21T05:20:04.883Z,9.00
2019-01-21T05:23:04.390Z,9.10
2019-01-21T05:26:16.405Z,9.10
2019-01-21T05:29:44.365Z,9.20
2019-01-21T05:32:59.028Z,9.30
2019-01-21T05:36:17.691Z,9.30
2019-01-21T05:39:26.946Z,9.20
2019-01-21T05:42:32.266Z,9.10
2019-01-21T05:45:34.451Z,9.10
2019-01-21T05:48:33.848Z,8.90
2019-01-21T05:51:59.050Z,9.00
2019-01-21T05:55:10.522Z,9.20
2019-01-21T05:58:07.384Z,9.10
2019-01-21T06:01:09.742Z,9.10
2019-01-21T06:04:25.548Z,9.40
2019-01-21T06:07:21.369Z,9.00
2019-01-21T06:10:14.359Z,8.90
2019-01-21T06:13:29.623Z,8.60
2019-01-21T06:16:26.477Z,8.50
2019-01-21T06:19:51.657Z,8.70
2019-01-21T06:22:58.843Z,8.60
2019-01-21T06:26:23.642Z,8.50
2019-01-21T06:29:24.378Z,8.40
2019-01-21T06:32:31.363Z,8.60
2019-01-21T06:35:45.344Z,8.70
2019-01-21T06:38:53.726Z,8.60
2019-01-21T06:41:52.869Z,8.50
2019-01-21T06:44:50.301Z,9.50
2019-01-21T06:47:54.943Z,9.20
2019-01-21T06:50:40.088Z,8.90
2019-01-21T06:53:48.805Z,8.90
2019-01-21T06:57:07.562Z,8.70
2019-01-21T07:00:10.554Z,8.90
2019-01-21T07:03:22.245Z,8.80
2019-01-21T07:06:29.334Z,9.10
2019-01-21T07:09:43.279Z,9.30
2019-01-21T07:12:29.353Z,9.80
2019-01-21T07:15:38.608Z,9.80
2019-01-21T07:18:51.835Z,9.60
2019-01-21T07:21:51.624Z,9.40
2019-01-21T07:24:45.123Z,9.20
2019-01-21T07:27:56.913Z,9.20
2019-01-21T07:31:04.323Z,9.30
2019-01-21T07:34:08.217Z,9.40
2019-01-21T07:37:19.706Z,9.50
2019-01-21T07:40:50.853Z,9.70
2019-01-21T07:43:35.116Z,9.80
2019-01-21T07:46:47.412Z,9.90
2019-01-21T07:50:11.123Z,10.10
2019-01-21T07:53:23.709Z,10.70
2019-01-21T07:56:16.760Z,11.40
2019-01-21T07:59:37.668Z,11.10
2019-01-21T08:02:56.530Z,11.50
2019-01-21T08:06:05.290Z,12.10
2019-01-21T08:08:59.032Z,12.70
2019-01-21T08:12:17.594Z,12.70
2019-01-21T08:15:36.647Z,13.00
2019-01-21T08:18:29.501Z,14.00
2019-01-21T08:21:38.530Z,15.00
2019-01-21T08:24:39.730Z,14.30
2019-01-21T08:28:07.762Z,13.50
2019-01-21T08:31:06.552Z,13.00
2019-01-21T08:34:21.718Z,12.80
2019-01-21T08:37:22.147Z,13.60
2019-01-21T08:40:35.070Z,14.20
2019-01-21T08:43:31.196Z,15.50
2019-01-21T08:46:31.629Z,15.10
2019-01-21T08:49:36.664Z,15.90
2019-01-21T08:52:52.658Z,16.60
2019-01-21T08:56:33.429Z,17.00
2019-01-21T08:59:21.161Z,16.20
2019-01-21T09:02:20.580Z,16.30
2019-01-21T09:04:58.827Z,16.40
2019-01-21T09:08:14.779Z,16.60
2019-01-21T09:11:39.672Z,15.90
2019-01-21T09:15:01.914Z,16.60
2019-01-21T09:18:27.225Z,16.00
2019-01-21T09:21:32.159Z,15.30
2019-01-21T09:24:31.052Z,14.90
2019-01-21T09:27:37.527Z,14.90
2019-01-21T09:30:26.688Z,15.00
2019-01-21T09:33:26.402Z,14.60
2019-01-21T09:36:20.721Z,14.30
2019-01-21T09:39:31.048Z,14.60
2019-01-21T09:42:40.592Z,14.40
2019-01-21T09:45:30.472Z,14.80
2019-01-21T09:47:57.519Z,14.20
2019-01-21T09:50:26.776Z,14.50
2019-01-21T09:52:55.830Z,14.80
2019-01-21T09:55:25.603Z,15.10
2019-01-21T09:58:06.531Z,15.00
2019-01-21T10:00:35.067Z,15.80
2019-01-21T10:03:04.399Z,15.10
2019-01-21T10:05:33.965Z,15.70
2019-01-21T10:08:29.600Z,16.60
2019-01-21T10:11:31.256Z,16.70
2019-01-21T10:14:18.511Z,16.30
2019-01-21T10:17:18.497Z,15.80
2019-01-21T10:20:04.955Z,15.80
2019-01-21T10:22:47.306Z,15.60
2019-01-21T10:25:41.591Z,15.40
2019-01-21T10:28:35.250Z,15.60
2019-01-21T10:31:35.708Z,15.70
2019-01-21T10:34:57.236Z,16.10
2019-01-21T10:38:16.113Z,15.60
2019-01-21T10:40:57.538Z,15.60
2019-01-21T10:44:06.589Z,15.80
2019-01-21T10:47:27.149Z,15.20
2019-01-21T10:50:39.192Z,14.80
2019-01-21T10:53:36.281Z,14.80
2019-01-21T10:56:33.908Z,15.20
2019-01-21T10:59:25.436Z,15.40
2019-01-21T11:02:38.451Z,15.20
2019-01-21T11:05:44.615Z,14.60
2019-01-21T11:08:47.448Z,14.50
2019-01-21T11:12:09.538Z,14.30
2019-01-21T11:15:01.186Z,14.50
2019-01-21T11:18:07.019Z,14.70
2019-01-21T11:20:48.544Z,14.80
2019-01-21T11:23:44.119Z,14.70
2019-01-21T11:27:02.467Z,14.50
2019-01-21T11:30:18.163Z,14.50
2019-01-21T11:33:11.109Z,14.60
2019-01-21T11:36:33.043Z,15.00
2019-01-21T11:39:44.943Z,15.10
2019-01-21T11:42:29.497Z,14.60
2019-01-21T11:45:19.014Z,14.70
2019-01-21T11:48:28.104Z,14.80
2019-01-21T11:51:22.696Z,14.90
2019-01-21T11:54:20.052Z,15.00
2019-01-21T11:57:28.477Z,15.70
2019-01-21T12:00:26.142Z,15.70
2019-01-21T12:03:23.558Z,15.80
2019-01-21T12:06:27.405Z,15.60
2019-01-21T12:09:46.161Z,15.50
2019-01-21T12:12:45.992Z,15.10
2019-01-21T12:15:46.740Z,14.90
2019-01-21T12:18:43.799Z,14.60
2019-01-21T12:21:48.287Z,14.60
2019-01-21T12:24:47.015Z,14.50
2019-01-21T12:27:45.458Z,14.70
2019-01-21T12:30:39.952Z,15.20
2019-01-21T12:33:48.778Z,14.90
2019-01-21T12:36:37.427Z,14.70
2019-01-21T12:40:02.535Z,14.90
2019-01-21T12:43:11.156Z,14.80
2019-01-21T12:46:04.623Z,14.90
2019-01-21T12:48:58.494Z,14.70
2019-01-21T12:52:14.086Z,14.50
2019-01-21T12:55:24.239Z,14.60
2019-01-21T12:58:11.286Z,14.60
2019-01-21T13:01:15.779Z,14.50
2019-01-21T13:04:24.502Z,14.40
2019-01-21T13:07:24.113Z,14.50
2019-01-21T13:10:35.298Z,14.60
2019-01-21T13:13:56.204Z,14.70
2019-01-21T13:16:38.699Z,14.70
2019-01-21T13:19:44.162Z,14.50
2019-01-21T13:22:35.210Z,14.40
2019-01-21T13:26:09.697Z,14.50
2019-01-21T13:28:46.076Z,14.50
2019-01-21T13:31:47.411Z,14.70
2019-01-21T13:34:57.160Z,14.50
2019-01-21T13:38:27.285Z,14.50
2019-01-21T13:41:27.269Z,14.60
2019-01-21T13:44:22.719Z,14.40
2019-01-21T13:47:44.485Z,14.30
2019-01-21T13:50:37.162Z,14.40
2019-01-21T13:53:54.213Z,14.10
2019-01-21T13:56:51.159Z,14.20
2019-01-21T13:59:52.921Z,14.30
2019-01-21T14:02:33.338Z,14.40
2019-01-21T14:05:36.166Z,14.60
2019-01-21T14:08:17.565Z,14.60
2019-01-21T14:11:21.561Z,14.80
2019-01-21T14:14:03.289Z,14.80
2019-01-21T14:17:03.304Z,15.00
2019-01-21T14:19:55.816Z,14.60
2019-01-21T14:23:05.666Z,14.10
2019-01-21T14:26:24.321Z,14.00
2019-01-21T14:29:18.197Z,14.00
2019-01-21T14:32:43.100Z,14.10
2019-01-21T14:35:37.489Z,14.10
2019-01-21T14:38:38.434Z,14.20
2019-01-21T14:41:25.379Z,13.90
2019-01-21T14:44:30.276Z,14.00
2019-01-21T14:48:01.531Z,14.10
2019-01-21T14:50:50.595Z,13.90
2019-01-21T14:53:50.625Z,13.70
2019-01-21T14:56:30.723Z,13.80
2019-01-21T14:59:21.487Z,13.90
2019-01-21T15:02:05.214Z,13.90
2019-01-21T15:05:03.658Z,13.70
2019-01-21T15:08:22.719Z,13.60
2019-01-21T15:11:23.803Z,13.70
2019-01-21T15:14:42.978Z,13.40
2019-01-21T15:17:46.701Z,13.40
2019-01-21T15:20:40.312Z,13.30
2019-01-21T15:23:31.735Z,13.30
2019-01-21T15:26:55.471Z,13.20
2019-01-21T15:30:14.419Z,13.40
2019-01-21T15:33:18.482Z,13.40
2019-01-21T15:36:17.378Z,13.30
2019-01-21T15:39:15.918Z,13.30
2019-01-21T15:42:23.558Z,13.20
2019-01-21T15:45:41.946Z,13.20
2019-01-21T15:48:42.368Z,13.10
2019-01-21T15:51:50.579Z,13.10
2019-01-21T15:55:11.696Z,13.10
2019-01-21T15:57:52.002Z,13.10
2019-01-21T16:01:26.171Z,13.00
2019-01-21T16:04:16.258Z,13.10
2019-01-21T16:07:25.596Z,12.80
2019-01-21T16:10:26.231Z,12.70
2019-01-21T16:13:18.913Z,12.80
2019-01-21T16:16:36.201Z,12.70
2019-01-21T16:19:44.516Z,12.70
2019-01-21T16:22:53.775Z,12.50
2019-01-21T16:25:32.381Z,12.50
2019-01-21T16:28:36.794Z,12.50
2019-01-21T16:31:18.995Z,12.60
2019-01-21T16:34:09.536Z,12.70
2019-01-21T16:37:25.704Z,12.60
2019-01-21T16:40:31.751Z,12.80
2019-01-21T16:43:00.373Z,12.70
2019-01-21T16:45:28.855Z,12.70
2019-01-21T16:47:57.360Z,12.70
2019-01-21T16:50:25.775Z,12.80
2019-01-21T16:52:54.360Z,12.50
2019-01-21T16:55:22.812Z,12.60
2019-01-21T16:57:51.318Z,12.50
2019-01-21T17:00:21.059Z,12.50
2019-01-21T17:02:49.451Z,12.60
2019-01-21T17:05:18.091Z,12.50
2019-01-21T17:07:46.604Z,12.60
2019-01-21T17:10:15.094Z,12.60
2019-01-21T17:12:43.602Z,12.40
2019-01-21T17:15:12.634Z,12.40
2019-01-21T17:17:41.190Z,12.30
2019-01-21T17:20:13.585Z,12.50
2019-01-21T17:22:42.068Z,12.50
2019-01-21T17:25:10.800Z,12.40
2019-01-21T17:27:39.169Z,12.20
2019-01-21T17:30:09.799Z,12.20
2019-01-21T17:32:38.234Z,12.30
2019-01-21T17:35:08.296Z,12.20
2019-01-21T17:37:39.329Z,12.30
2019-01-21T17:40:09.851Z,12.30
2019-01-21T17:42:38.405Z,12.30
2019-01-21T17:45:10.775Z,12.30
2019-01-21T17:47:39.070Z,12.30
2019-01-21T17:50:09.111Z,12.30
2019-01-21T17:52:37.453Z,12.30
2019-01-21T17:55:06.098Z,12.30
2019-01-21T17:57:34.609Z,12.20
2019-01-21T18:00:04.025Z,12.30
2019-01-21T18:02:32.698Z,12.20
2019-01-21T18:05:01.208Z,12.10
2019-01-21T18:07:29.586Z,12.20
2019-01-21T18:09:58.878Z,11.90
2019-01-21T18:12:27.539Z,12.10
2019-01-21T18:21:44.990Z,12.10
2019-01-21T18:24:13.082Z,12.60
2019-01-21T18:26:41.630Z,12.40
2019-01-21T18:29:14.542Z,12.80
2019-01-21T18:31:43.518Z,12.60
2019-01-21T18:34:12.398Z,12.60
2019-01-21T18:36:40.900Z,12.40
2019-01-21T18:39:11.937Z,12.60
2019-01-21T18:41:40.138Z,12.90
2019-01-21T18:44:08.673Z,12.80
2019-01-21T18:46:36.979Z,12.80
2019-01-21T18:49:05.480Z,12.60
2019-01-21T18:51:33.834Z,12.60
2019-01-21T18:54:02.006Z,12.40
2019-01-21T18:56:30.490Z,12.40
2019-01-21T18:58:58.976Z,12.20
2019-01-21T19:01:27.480Z,12.30
2019-01-21T19:03:55.953Z,12.50
2019-01-21T19:06:24.373Z,13.00
2019-01-21T19:08:52.725Z,13.10
2019-01-21T19:11:21.003Z,13.30
2019-01-21T19:13:49.758Z,13.30
2019-01-21T19:16:18.348Z,13.40
2019-01-21T19:18:46.886Z,13.40
2019-01-21T19:21:15.409Z,13.30
2019-01-21T19:23:43.764Z,13.40
2019-01-21T19:26:12.176Z,13.50
2019-01-21T19:28:40.840Z,13.50
2019-01-21T19:31:09.232Z,13.00
2019-01-21T19:33:37.564Z,13.00
2019-01-21T19:36:05.943Z,12.80
2019-01-21T19:38:34.438Z,12.80
2019-01-21T19:41:02.596Z,13.00
2019-01-21T19:43:31.179Z,13.20
2019-01-21T19:45:59.600Z,12.90
2019-01-21T19:48:27.980Z,12.60
2019-01-21T19:50:56.519Z,12.70
2019-01-21T19:53:24.818Z,12.80
2019-01-21T19:55:53.222Z,13.10
2019-01-21T19:58:21.650Z,13.00
2019-01-21T20:00:50.235Z,12.90
2019-01-21T20:03:18.647Z,13.10
2019-01-21T20:05:46.887Z,12.90
2019-01-21T20:08:15.487Z,13.00
2019-01-21T20:10:43.891Z,13.10
2019-01-21T20:13:12.434Z,12.80
2019-01-21T20:15:40.914Z,12.10
2019-01-21T20:18:09.538Z,12.30
2019-01-21T20:20:39.833Z,12.30
2019-01-21T20:23:08.439Z,12.10
2019-01-21T20:25:36.810Z,12.20
2019-01-21T20:28:05.465Z,12.30
2019-01-21T20:30:39.514Z,12.20
2019-01-21T20:33:07.857Z,12.10
2019-01-21T20:35:36.457Z,12.10
2019-01-21T20:38:04.750Z,12.10
2019-01-21T20:40:33.105Z,12.10
2019-01-21T20:43:01.674Z,12.10
2019-01-21T20:45:30.086Z,12.20
2019-01-21T20:47:58.562Z,12.20
2019-01-21T20:50:28.480Z,12.00
2019-01-21T20:52:56.682Z,12.10
2019-01-21T20:55:25.407Z,12.20
2019-01-21T20:57:53.921Z,12.30
2019-01-21T21:00:24.073Z,12.20
2019-01-21T21:02:53.304Z,12.20
2019-01-21T21:05:21.722Z,12.20
2019-01-21T21:07:50.368Z,12.00
2019-01-21T21:10:17.037Z,12.00
2019-01-21T21:12:45.466Z,11.90
2019-01-21T21:15:17.026Z,12.00
2019-01-21T21:17:47.002Z,12.00
2019-01-21T21:20:15.499Z,12.10
2019-01-21T21:22:43.807Z,12.10
2019-01-21T21:25:13.681Z,12.10
2019-01-21T21:27:42.253Z,12.10
2019-01-21T21:30:14.453Z,12.20
2019-01-21T21:32:42.913Z,12.00
2019-01-21T21:35:14.556Z,11.90
2019-01-21T21:37:43.240Z,11.80
2019-01-21T21:40:14.005Z,11.80
2019-01-21T21:42:42.386Z,11.70
2019-01-21T21:45:11.560Z,11.70
2019-01-21T21:47:39.907Z,11.60
2019-01-21T21:50:11.546Z,11.50
2019-01-21T21:52:39.782Z,11.50
2019-01-21T21:55:09.260Z,11.50
2019-01-21T21:57:37.741Z,11.60
2019-01-21T22:00:08.899Z,11.70
2019-01-21T22:02:37.669Z,11.70
2019-01-21T22:05:07.090Z,11.80
2019-01-21T22:07:35.584Z,11.90
2019-01-21T22:10:05.208Z,12.00
2019-01-21T22:12:33.460Z,12.10
2019-01-21T22:15:01.948Z,12.30
2019-01-21T22:17:30.411Z,12.40
2019-01-21T22:19:58.693Z,12.40
2019-01-21T22:22:27.049Z,12.40
2019-01-21T22:24:55.635Z,12.30
2019-01-21T22:27:24.026Z,12.40
2019-01-21T22:29:52.832Z,12.90
2019-01-21T22:32:21.243Z,13.10
2019-01-21T22:34:49.477Z,13.30
2019-01-21T22:37:17.932Z,13.40
2019-01-21T22:39:46.381Z,13.50
2019-01-21T22:42:14.915Z,13.60
2019-01-21T22:44:43.273Z,13.60
2019-01-21T22:47:11.751Z,13.60
2019-01-21T22:49:40.165Z,13.60
2019-01-21T22:52:08.407Z,13.60
2019-01-21T22:54:36.991Z,13.60
2019-01-21T22:57:05.399Z,13.60
2019-01-21T22:59:33.861Z,13.70
2019-01-21T23:02:02.223Z,13.70
2019-01-21T23:04:30.806Z,13.60
2019-01-21T23:07:01.627Z,13.60
2019-01-21T23:09:30.532Z,13.50
2019-01-21T23:12:00.437Z,13.40
2019-01-21T23:14:28.927Z,13.30
2019-01-21T23:16:57.330Z,13.10
2019-01-21T23:19:26.009Z,12.80
2019-01-21T23:21:54.503Z,12.80
2019-01-21T23:24:22.873Z,12.60
2019-01-21T23:26:51.478Z,12.70
2019-01-21T23:29:19.938Z,12.70
2019-01-21T23:31:48.596Z,12.80
2019-01-21T23:34:17.111Z,12.90
2019-01-21T23:36:45.819Z,12.90
2019-01-21T23:39:14.691Z,12.60
2019-01-21T23:41:43.399Z,12.60
2019-01-21T23:44:12.022Z,12.60
2019-01-21T23:46:40.605Z,12.50
2019-01-21T23:49:09.319Z,12.70
2019-01-21T23:51:37.975Z,12.80
2019-01-21T23:54:06.475Z,13.00
2019-01-21T23:56:34.927Z,12.90
2019-01-21T23:59:03.520Z,12.90
